createdAt,value
2022-09-27T00:02:00.833Z,13.90
2022-09-27T00:07:03.162Z,15.55
2022-09-27T00:12:05.536Z,15.88
2022-09-27T00:17:07.857Z,16.13
2022-09-27T00:22:10.174Z,14.15
2022-09-27T00:27:12.618Z,15.65
2022-09-27T00:32:15.022Z,13.55
2022-09-27T00:37:17.331Z,14.13
2022-09-27T00:42:19.666Z,13.73
2022-09-27T00:47:29.282Z,13.85
2022-09-27T00:52:37.621Z,12.73
2022-09-27T00:57:41.355Z,13.85
2022-09-27T01:02:47.071Z,14.75
2022-09-27T01:07:49.404Z,15.02
2022-09-27T01:13:05.575Z,14.80
2022-09-27T01:18:35.795Z,13.70
2022-09-27T01:23:52.087Z,13.75
2022-09-27T01:29:15.623Z,15.63
2022-09-27T01:34:24.139Z,13.30
2022-09-27T01:39:47.255Z,14.18
2022-09-27T01:45:31.124Z,14.85
2022-09-27T01:50:50.580Z,15.00
2022-09-27T01:55:53.907Z,15.57
2022-09-27T02:01:30.248Z,16.52
2022-09-27T02:06:36.554Z,15.30
2022-09-27T02:11:56.412Z,15.10
2022-09-27T02:17:11.449Z,13.23
2022-09-27T02:22:36.772Z,17.52
2022-09-27T02:28:00.669Z,17.77
2022-09-27T02:33:09.365Z,16.95
2022-09-27T02:38:12.006Z,14.63
2022-09-27T02:43:16.649Z,14.07
2022-09-27T02:48:31.220Z,16.77
2022-09-27T02:53:57.204Z,14.35
2022-09-27T03:00:01.413Z,15.07
2022-09-27T03:05:18.692Z,13.95
2022-09-27T03:10:23.851Z,15.98
2022-09-27T03:15:26.539Z,15.77
2022-09-27T03:20:37.763Z,17.00
2022-09-27T03:25:43.815Z,16.50
2022-09-27T03:30:48.084Z,15.15
2022-09-27T03:36:10.571Z,15.13
2022-09-27T03:41:12.990Z,12.40
2022-09-27T03:46:16.261Z,12.17
2022-09-27T03:51:18.751Z,13.20
2022-09-27T03:56:20.930Z,13.45
2022-09-27T04:01:23.461Z,14.30
2022-09-27T04:06:30.676Z,11.20
2022-09-27T04:11:33.012Z,10.68
2022-09-27T04:16:37.375Z,11.98
2022-09-27T04:22:05.707Z,14.30
2022-09-27T04:27:08.230Z,14.20
2022-09-27T04:32:15.155Z,14.25
2022-09-27T04:37:45.218Z,11.63
2022-09-27T04:42:48.869Z,9.95
2022-09-27T04:47:51.454Z,9.70
2022-09-27T04:52:54.414Z,8.48
2022-09-27T04:57:56.733Z,10.43
2022-09-27T05:02:59.197Z,7.80
2022-09-27T05:08:15.039Z,9.45
2022-09-27T05:13:43.639Z,9.48
2022-09-27T05:18:46.211Z,12.13
2022-09-27T05:24:07.229Z,11.13
2022-09-27T05:29:10.298Z,11.07
2022-09-27T05:34:13.614Z,9.35
2022-09-27T05:39:22.626Z,8.07
2022-09-27T05:44:26.158Z,8.32
2022-09-27T05:49:48.837Z,12.55
2022-09-27T05:54:51.270Z,10.63
2022-09-27T05:59:56.907Z,12.70
2022-09-27T06:05:14.873Z,12.70
2022-09-27T06:10:47.500Z,12.10
2022-09-27T06:15:53.496Z,10.90
2022-09-27T06:20:59.743Z,12.25
2022-09-27T06:26:08.249Z,11.90
2022-09-27T06:36:37.905Z,10.80
2022-09-27T06:41:40.183Z,12.82
2022-09-27T06:47:05.395Z,12.05
2022-09-27T06:52:21.928Z,13.18
2022-09-27T06:57:42.824Z,10.40
2022-09-27T07:02:46.330Z,11.98
2022-09-27T07:08:19.638Z,12.38
2022-09-27T07:13:22.698Z,13.25
2022-09-27T07:18:26.465Z,11.75
2022-09-27T07:23:30.954Z,12.07
2022-09-27T07:28:34.819Z,10.40
2022-09-27T07:33:43.296Z,11.52
2022-09-27T07:38:46.291Z,9.82
2022-09-27T07:43:49.542Z,9.68
2022-09-27T07:48:53.847Z,8.80
2022-09-27T07:54:22.051Z,9.10
2022-09-27T07:59:53.939Z,8.40
2022-09-27T08:04:59.716Z,8.38
2022-09-27T08:10:03.898Z,8.82
2022-09-27T08:15:08.465Z,8.45
2022-09-27T08:20:14.746Z,10.95
2022-09-27T08:25:38.137Z,10.13
2022-09-27T08:31:01.905Z,9.95
2022-09-27T08:36:04.390Z,9.60
2022-09-27T08:41:16.086Z,8.65
2022-09-27T08:46:38.914Z,9.50
2022-09-27T08:51:41.540Z,7.47
2022-09-27T08:56:50.326Z,7.13
2022-09-27T09:01:54.890Z,7.70
2022-09-27T09:07:09.902Z,7.40
2022-09-27T09:12:39.203Z,7.85
2022-09-27T09:18:03.586Z,8.13
2022-09-27T09:23:40.353Z,7.28
2022-09-27T09:28:55.965Z,6.25
2022-09-27T09:34:09.754Z,6.53
2022-09-27T09:39:17.151Z,6.32
2022-09-27T09:44:46.418Z,5.65
2022-09-27T09:49:52.308Z,7.13
2022-09-27T09:55:02.793Z,6.15
2022-09-27T10:00:18.980Z,6.38
2022-09-27T10:05:26.754Z,7.15
2022-09-27T10:10:42.458Z,5.80
2022-09-27T10:16:08.409Z,6.07
2022-09-27T10:21:15.536Z,6.22
2022-09-27T10:26:21.731Z,5.20
2022-09-27T10:31:36.066Z,6.90
2022-09-27T10:37:23.690Z,6.38
2022-09-27T10:42:52.331Z,6.72
2022-09-27T10:48:01.372Z,5.70
2022-09-27T10:53:15.101Z,5.40
2022-09-27T10:58:32.712Z,5.28
2022-09-27T11:03:39.858Z,4.40
2022-09-27T11:08:42.724Z,5.07
2022-09-27T11:14:05.054Z,5.15
2022-09-27T11:19:35.180Z,5.35
2022-09-27T11:24:43.750Z,4.70
2022-09-27T11:30:22.426Z,3.80
2022-09-27T11:36:13.401Z,4.10
2022-09-27T11:41:35.173Z,21.70
2022-09-27T11:46:41.830Z,9.15
2022-09-27T11:51:45.962Z,6.03
2022-09-27T11:56:57.822Z,5.10
2022-09-27T12:02:45.477Z,4.22
2022-09-27T12:08:04.084Z,4.53
2022-09-27T12:13:12.152Z,3.70
2022-09-27T12:18:25.451Z,4.20
2022-09-27T12:23:42.061Z,3.63
2022-09-27T12:29:31.767Z,3.40
2022-09-27T12:34:49.751Z,3.40
2022-09-27T12:40:01.022Z,6.03
2022-09-27T12:45:16.657Z,5.30
2022-09-27T12:50:30.308Z,3.60
2022-09-27T12:55:47.421Z,3.30
2022-09-27T13:01:08.687Z,3.10
2022-09-27T13:06:33.860Z,2.97
2022-09-27T13:11:58.676Z,2.70
2022-09-27T13:17:02.112Z,3.10
2022-09-27T13:22:11.668Z,3.97
2022-09-27T13:27:39.984Z,3.20
2022-09-27T13:33:09.180Z,3.90
2022-09-27T13:38:22.754Z,5.20
2022-09-27T13:43:44.984Z,3.95
2022-09-27T13:49:15.507Z,3.50
2022-09-27T13:54:54.811Z,3.50
2022-09-27T14:00:05.352Z,3.92
2022-09-27T14:05:51.446Z,3.10
2022-09-27T14:10:57.829Z,5.53
2022-09-27T14:16:04.589Z,5.60
2022-09-27T14:21:26.809Z,4.05
2022-09-27T14:26:45.909Z,3.63
2022-09-27T14:32:05.311Z,3.80
2022-09-27T14:37:24.575Z,4.20
2022-09-27T14:42:37.457Z,3.45
2022-09-27T14:47:46.524Z,10.65
2022-09-27T14:52:50.122Z,11.02
2022-09-27T14:58:00.139Z,30.05
2022-09-27T15:03:05.362Z,14.13
2022-09-27T15:08:08.339Z,10.85
2022-09-27T15:13:14.905Z,18.73
2022-09-27T15:18:37.751Z,45.20
2022-09-27T15:23:42.502Z,61.00
2022-09-27T15:28:46.956Z,30.90
2022-09-27T15:33:56.979Z,23.15
2022-09-27T15:39:10.439Z,24.85
2022-09-27T15:44:38.755Z,22.15
2022-09-27T15:49:41.164Z,15.60
2022-09-27T15:54:46.210Z,18.05
2022-09-27T15:59:48.530Z,34.85
2022-09-27T16:04:51.006Z,34.72
2022-09-27T16:09:55.655Z,39.50
2022-09-27T16:14:57.882Z,25.63
2022-09-27T16:20:03.431Z,21.45
2022-09-27T16:25:08.577Z,21.90
2022-09-27T16:30:11.384Z,22.33
2022-09-27T16:35:15.593Z,14.55
2022-09-27T16:40:18.786Z,12.25
2022-09-27T16:45:21.627Z,13.48
2022-09-27T16:50:42.279Z,13.40
2022-09-27T16:55:44.802Z,9.73
2022-09-27T17:00:47.399Z,16.00
2022-09-27T17:05:49.947Z,25.23
2022-09-27T17:10:52.337Z,37.05
2022-09-27T17:15:54.757Z,20.48
2022-09-27T17:21:02.280Z,12.10
2022-09-27T17:26:10.277Z,7.30
2022-09-27T17:31:15.779Z,6.18
2022-09-27T17:36:20.887Z,10.82
2022-09-27T17:41:25.704Z,12.23
2022-09-27T17:46:32.914Z,11.60
2022-09-27T17:51:37.333Z,15.27
2022-09-27T17:56:41.454Z,14.30
2022-09-27T18:01:44.904Z,14.93
2022-09-27T18:11:49.924Z,9.57
2022-09-27T18:16:57.841Z,9.65
2022-09-27T18:22:01.013Z,17.77
2022-09-27T18:27:05.075Z,17.08
2022-09-27T18:32:07.608Z,14.90
2022-09-27T18:37:10.146Z,11.73
2022-09-27T18:42:12.762Z,10.87
2022-09-27T18:47:17.526Z,26.30
2022-09-27T18:52:19.962Z,19.10
2022-09-27T18:57:24.754Z,15.32
2022-09-27T19:02:27.294Z,15.75
2022-09-27T19:07:30.183Z,13.77
2022-09-27T19:12:33.803Z,16.10
2022-09-27T19:22:39.981Z,17.48
2022-09-27T19:27:43.332Z,17.55
2022-09-27T19:32:51.691Z,24.02
2022-09-27T19:37:54.083Z,23.65
2022-09-27T19:42:56.418Z,15.82
2022-09-27T19:47:58.785Z,20.52
2022-09-27T19:53:00.964Z,16.45
2022-09-27T19:58:04.145Z,16.15
2022-09-27T20:03:06.486Z,14.75
2022-09-27T20:08:08.796Z,12.43
2022-09-27T20:13:11.018Z,9.55
2022-09-27T20:18:13.985Z,12.33
2022-09-27T20:23:20.073Z,10.87
2022-09-27T20:28:22.344Z,6.05
2022-09-27T20:33:43.894Z,4.80
2022-09-27T20:38:52.182Z,9.27
2022-09-27T20:43:56.477Z,11.65
2022-09-27T20:49:02.967Z,11.75
2022-09-27T20:54:07.002Z,16.75
2022-09-27T20:59:20.917Z,8.88
2022-09-27T21:04:23.859Z,8.57
2022-09-27T21:09:26.902Z,8.65
2022-09-27T21:14:29.156Z,8.20
2022-09-27T21:19:31.642Z,6.63
2022-09-27T21:24:33.846Z,7.57
2022-09-27T21:29:36.093Z,12.15
2022-09-27T21:34:38.296Z,11.60
2022-09-27T21:39:41.747Z,11.93
2022-09-27T21:44:44.240Z,10.13
2022-09-27T21:49:46.793Z,10.37
2022-09-27T21:54:48.994Z,10.18
2022-09-27T21:59:51.177Z,14.90
2022-09-27T22:04:53.304Z,14.45
2022-09-27T22:09:55.682Z,14.50
2022-09-27T22:14:58.727Z,11.60
2022-09-27T22:20:01.219Z,8.07
2022-09-27T22:25:03.557Z,7.88
2022-09-27T22:30:06.482Z,11.02
2022-09-27T22:35:09.013Z,13.73
2022-09-27T22:40:11.811Z,17.10
2022-09-27T22:45:15.055Z,10.83
2022-09-27T22:50:17.299Z,8.55
2022-09-27T22:55:19.482Z,12.18
2022-09-27T23:00:22.262Z,19.38
2022-09-27T23:05:24.786Z,16.10
2022-09-27T23:10:28.060Z,12.60
2022-09-27T23:15:30.521Z,7.13
2022-09-27T23:20:32.778Z,5.20
2022-09-27T23:25:34.984Z,4.00
2022-09-27T23:30:37.176Z,4.05
2022-09-27T23:35:39.365Z,3.95
2022-09-27T23:40:42.007Z,4.00
2022-09-27T23:45:44.309Z,3.57
2022-09-27T23:50:46.811Z,3.58
2022-09-27T23:56:07.525Z,3.97
